Guatay, California
Current Conditions -  °F | °C
As of 2:15 PM on Monday 20 Oct 2014 (Local Time) from KSEE Reporting Station
Clear Clear  
Wind Chill: 81°   Ceiling: Unl
Heat Index: 81°   Visibility: 9mi
Dew Point: 59°   Wind: 9mph
Humidity: 48%   Direction: 300°WNW
Pressure: 29.89"   Gusts: NA
Location:  32.85°N, 116.56°W
Report Text: KSEE 202115Z AUTO 30008KT 9SM CLR 27/15 A2989 RMK AO2
Loading
Personal Weather Stations






























Interactive Weather Map
Tropical Storm Tracking
New forecast layout! Learn more

10-Day Weather Forecast

Advertisements
Track Severe Weather on mobile